sensor_id;sensor_type;location;lat;lon;timestamp;P1;durP1;ratioP1;P2;durP2;ratioP2
15254;SDS011;7730;49.610;11.136;2022-10-03T00:02:16;12.13;;;4.72;;
15254;SDS011;7730;49.610;11.136;2022-10-03T00:04:50;12.48;;;4.85;;
15254;SDS011;7730;49.610;11.136;2022-10-03T00:07:27;11.18;;;5.10;;
15254;SDS011;7730;49.610;11.136;2022-10-03T00:09:59;10.65;;;5.05;;
15254;SDS011;7730;49.610;11.136;2022-10-03T00:12:44;13.15;;;5.18;;
15254;SDS011;7730;49.610;11.136;2022-10-03T00:15:16;11.93;;;4.70;;
15254;SDS011;7730;49.610;11.136;2022-10-03T00:17:48;10.65;;;4.80;;
15254;SDS011;7730;49.610;11.136;2022-10-03T00:20:28;10.75;;;4.57;;
15254;SDS011;7730;49.610;11.136;2022-10-03T00:22:59;11.52;;;4.68;;
15254;SDS011;7730;49.610;11.136;2022-10-03T00:25:29;9.95;;;4.60;;
15254;SDS011;7730;49.610;11.136;2022-10-03T00:30:48;12.52;;;5.10;;
15254;SDS011;7730;49.610;11.136;2022-10-03T00:33:19;11.98;;;5.22;;
15254;SDS011;7730;49.610;11.136;2022-10-03T00:35:57;10.82;;;4.90;;
15254;SDS011;7730;49.610;11.136;2022-10-03T00:38:31;13.05;;;4.97;;
15254;SDS011;7730;49.610;11.136;2022-10-03T00:41:03;12.45;;;4.90;;
15254;SDS011;7730;49.610;11.136;2022-10-03T00:46:24;11.75;;;5.28;;
15254;SDS011;7730;49.610;11.136;2022-10-03T00:49:13;11.48;;;4.97;;
15254;SDS011;7730;49.610;11.136;2022-10-03T00:51:54;11.68;;;4.85;;
15254;SDS011;7730;49.610;11.136;2022-10-03T00:54:36;13.18;;;5.30;;
15254;SDS011;7730;49.610;11.136;2022-10-03T00:57:10;11.30;;;5.03;;
15254;SDS011;7730;49.610;11.136;2022-10-03T00:59:46;13.40;;;5.07;;
15254;SDS011;7730;49.610;11.136;2022-10-03T01:02:22;10.75;;;4.90;;
15254;SDS011;7730;49.610;11.136;2022-10-03T01:04:53;10.20;;;5.05;;
15254;SDS011;7730;49.610;11.136;2022-10-03T01:07:30;14.93;;;5.07;;
15254;SDS011;7730;49.610;11.136;2022-10-03T01:10:07;14.02;;;5.03;;
15254;SDS011;7730;49.610;11.136;2022-10-03T01:12:45;13.85;;;5.07;;
15254;SDS011;7730;49.610;11.136;2022-10-03T01:15:20;12.48;;;4.85;;
15254;SDS011;7730;49.610;11.136;2022-10-03T01:17:57;12.65;;;5.00;;
15254;SDS011;7730;49.610;11.136;2022-10-03T01:20:29;11.88;;;5.28;;
15254;SDS011;7730;49.610;11.136;2022-10-03T01:23:21;12.25;;;4.90;;
15254;SDS011;7730;49.610;11.136;2022-10-03T01:25:51;12.43;;;5.20;;
15254;SDS011;7730;49.610;11.136;2022-10-03T01:28:28;14.50;;;5.13;;
15254;SDS011;7730;49.610;11.136;2022-10-03T01:31:17;13.40;;;5.32;;
15254;SDS011;7730;49.610;11.136;2022-10-03T01:33:47;13.20;;;5.00;;
15254;SDS011;7730;49.610;11.136;2022-10-03T01:36:19;13.35;;;5.53;;
15254;SDS011;7730;49.610;11.136;2022-10-03T01:38:48;11.40;;;5.05;;
15254;SDS011;7730;49.610;11.136;2022-10-03T01:41:21;13.00;;;5.30;;
15254;SDS011;7730;49.610;11.136;2022-10-03T01:43:52;12.90;;;5.13;;
15254;SDS011;7730;49.610;11.136;2022-10-03T01:46:21;12.68;;;5.38;;
15254;SDS011;7730;49.610;11.136;2022-10-03T01:48:54;14.50;;;5.72;;
15254;SDS011;7730;49.610;11.136;2022-10-03T01:51:26;12.82;;;5.10;;
15254;SDS011;7730;49.610;11.136;2022-10-03T01:54:05;13.25;;;5.72;;
15254;SDS011;7730;49.610;11.136;2022-10-03T01:56:34;13.05;;;5.20;;
15254;SDS011;7730;49.610;11.136;2022-10-03T01:59:07;12.50;;;5.30;;
15254;SDS011;7730;49.610;11.136;2022-10-03T02:01:38;11.85;;;5.20;;
15254;SDS011;7730;49.610;11.136;2022-10-03T02:04:11;14.55;;;5.35;;
15254;SDS011;7730;49.610;11.136;2022-10-03T02:06:46;12.70;;;5.57;;
15254;SDS011;7730;49.610;11.136;2022-10-03T02:09:19;13.27;;;5.50;;
15254;SDS011;7730;49.610;11.136;2022-10-03T02:12:00;14.88;;;5.45;;
15254;SDS011;7730;49.610;11.136;2022-10-03T02:14:33;14.52;;;5.55;;
15254;SDS011;7730;49.610;11.136;2022-10-03T02:17:02;13.25;;;5.20;;
15254;SDS011;7730;49.610;11.136;2022-10-03T02:19:33;14.23;;;5.53;;
15254;SDS011;7730;49.610;11.136;2022-10-03T02:22:12;15.05;;;5.18;;
15254;SDS011;7730;49.610;11.136;2022-10-03T02:24:40;14.15;;;5.40;;
15254;SDS011;7730;49.610;11.136;2022-10-03T02:27:12;12.38;;;5.10;;
15254;SDS011;7730;49.610;11.136;2022-10-03T02:38:07;10.82;;;5.10;;
15254;SDS011;7730;49.610;11.136;2022-10-03T02:40:45;12.90;;;5.20;;
15254;SDS011;7730;49.610;11.136;2022-10-03T02:43:24;14.15;;;5.40;;
15254;SDS011;7730;49.610;11.136;2022-10-03T02:46:05;14.07;;;5.53;;
15254;SDS011;7730;49.610;11.136;2022-10-03T02:48:40;11.57;;;4.70;;
15254;SDS011;7730;49.610;11.136;2022-10-03T02:54:02;11.48;;;5.30;;
15254;SDS011;7730;49.610;11.136;2022-10-03T02:57:02;15.20;;;5.30;;
15254;SDS011;7730;49.610;11.136;2022-10-03T03:02:43;14.95;;;5.38;;
15254;SDS011;7730;49.610;11.136;2022-10-03T03:05:21;14.07;;;5.55;;
15254;SDS011;7730;49.610;11.136;2022-10-03T03:08:03;12.88;;;6.00;;
15254;SDS011;7730;49.610;11.136;2022-10-03T03:10:51;16.40;;;6.38;;
15254;SDS011;7730;49.610;11.136;2022-10-03T03:16:31;12.27;;;5.75;;
15254;SDS011;7730;49.610;11.136;2022-10-03T03:19:08;13.30;;;5.50;;
15254;SDS011;7730;49.610;11.136;2022-10-03T03:21:39;15.40;;;6.05;;
15254;SDS011;7730;49.610;11.136;2022-10-03T03:24:10;13.82;;;5.80;;
15254;SDS011;7730;49.610;11.136;2022-10-03T03:29:29;13.82;;;5.88;;
15254;SDS011;7730;49.610;11.136;2022-10-03T03:32:03;15.63;;;5.90;;
15254;SDS011;7730;49.610;11.136;2022-10-03T03:34:35;14.18;;;5.88;;
15254;SDS011;7730;49.610;11.136;2022-10-03T03:37:07;12.75;;;6.00;;
15254;SDS011;7730;49.610;11.136;2022-10-03T03:39:41;13.23;;;6.22;;
15254;SDS011;7730;49.610;11.136;2022-10-03T03:42:15;14.98;;;5.88;;
15254;SDS011;7730;49.610;11.136;2022-10-03T03:44:52;13.55;;;6.28;;
15254;SDS011;7730;49.610;11.136;2022-10-03T03:47:27;15.68;;;5.95;;
15254;SDS011;7730;49.610;11.136;2022-10-03T03:50:04;13.95;;;5.60;;
15254;SDS011;7730;49.610;11.136;2022-10-03T03:52:36;14.15;;;5.85;;
15254;SDS011;7730;49.610;11.136;2022-10-03T03:55:15;15.85;;;6.25;;
15254;SDS011;7730;49.610;11.136;2022-10-03T04:00:36;12.18;;;5.82;;
15254;SDS011;7730;49.610;11.136;2022-10-03T04:03:17;14.52;;;6.38;;
15254;SDS011;7730;49.610;11.136;2022-10-03T04:05:51;15.68;;;6.50;;
15254;SDS011;7730;49.610;11.136;2022-10-03T04:08:32;13.07;;;5.75;;
15254;SDS011;7730;49.610;11.136;2022-10-03T04:11:08;14.00;;;5.90;;
15254;SDS011;7730;49.610;11.136;2022-10-03T04:13:45;16.40;;;6.35;;
15254;SDS011;7730;49.610;11.136;2022-10-03T04:16:27;15.68;;;6.13;;
15254;SDS011;7730;49.610;11.136;2022-10-03T04:19:18;14.70;;;6.10;;
15254;SDS011;7730;49.610;11.136;2022-10-03T04:21:52;14.68;;;6.07;;
15254;SDS011;7730;49.610;11.136;2022-10-03T04:27:07;13.15;;;5.70;;
15254;SDS011;7730;49.610;11.136;2022-10-03T04:29:41;14.20;;;6.63;;
15254;SDS011;7730;49.610;11.136;2022-10-03T04:32:16;14.38;;;5.80;;
15254;SDS011;7730;49.610;11.136;2022-10-03T04:34:52;13.75;;;5.90;;
15254;SDS011;7730;49.610;11.136;2022-10-03T04:37:25;13.98;;;5.95;;
15254;SDS011;7730;49.610;11.136;2022-10-03T04:40:00;14.52;;;5.68;;
15254;SDS011;7730;49.610;11.136;2022-10-03T04:42:36;13.65;;;5.70;;
15254;SDS011;7730;49.610;11.136;2022-10-03T04:45:11;13.77;;;5.65;;
15254;SDS011;7730;49.610;11.136;2022-10-03T04:47:46;14.70;;;5.97;;
15254;SDS011;7730;49.610;11.136;2022-10-03T04:50:20;15.48;;;5.60;;
15254;SDS011;7730;49.610;11.136;2022-10-03T04:52:51;16.02;;;5.72;;
15254;SDS011;7730;49.610;11.136;2022-10-03T04:55:23;15.30;;;5.90;;
15254;SDS011;7730;49.610;11.136;2022-10-03T04:57:53;14.10;;;5.40;;
15254;SDS011;7730;49.610;11.136;2022-10-03T05:00:22;12.27;;;5.63;;
15254;SDS011;7730;49.610;11.136;2022-10-03T05:02:56;13.20;;;5.40;;
15254;SDS011;7730;49.610;11.136;2022-10-03T05:05:33;14.93;;;5.10;;
15254;SDS011;7730;49.610;11.136;2022-10-03T05:08:08;15.45;;;6.00;;
15254;SDS011;7730;49.610;11.136;2022-10-03T05:10:45;13.82;;;5.50;;
15254;SDS011;7730;49.610;11.136;2022-10-03T05:13:14;14.02;;;5.57;;
15254;SDS011;7730;49.610;11.136;2022-10-03T05:15:44;14.95;;;5.38;;
15254;SDS011;7730;49.610;11.136;2022-10-03T05:18:17;10.98;;;4.82;;
15254;SDS011;7730;49.610;11.136;2022-10-03T05:20:46;14.23;;;4.75;;
15254;SDS011;7730;49.610;11.136;2022-10-03T05:23:22;13.60;;;5.25;;
15254;SDS011;7730;49.610;11.136;2022-10-03T05:25:52;13.80;;;5.25;;
15254;SDS011;7730;49.610;11.136;2022-10-03T05:28:23;14.13;;;5.13;;
15254;SDS011;7730;49.610;11.136;2022-10-03T05:30:55;14.18;;;5.10;;
15254;SDS011;7730;49.610;11.136;2022-10-03T05:33:28;13.68;;;4.93;;
15254;SDS011;7730;49.610;11.136;2022-10-03T05:36:01;11.40;;;4.90;;
15254;SDS011;7730;49.610;11.136;2022-10-03T05:38:38;13.40;;;5.25;;
15254;SDS011;7730;49.610;11.136;2022-10-03T05:41:10;15.27;;;5.32;;
15254;SDS011;7730;49.610;11.136;2022-10-03T05:43:45;13.77;;;5.43;;
15254;SDS011;7730;49.610;11.136;2022-10-03T05:46:20;14.13;;;5.53;;
15254;SDS011;7730;49.610;11.136;2022-10-03T05:48:50;12.50;;;5.35;;
15254;SDS011;7730;49.610;11.136;2022-10-03T05:51:21;12.90;;;5.32;;
15254;SDS011;7730;49.610;11.136;2022-10-03T05:54:09;12.80;;;5.50;;
15254;SDS011;7730;49.610;11.136;2022-10-03T05:56:48;15.45;;;6.05;;
15254;SDS011;7730;49.610;11.136;2022-10-03T05:59:25;15.82;;;5.90;;
15254;SDS011;7730;49.610;11.136;2022-10-03T06:04:46;16.63;;;6.70;;
15254;SDS011;7730;49.610;11.136;2022-10-03T06:07:20;13.70;;;6.30;;
15254;SDS011;7730;49.610;11.136;2022-10-03T06:12:43;15.48;;;6.38;;
15254;SDS011;7730;49.610;11.136;2022-10-03T06:15:23;14.48;;;5.93;;
15254;SDS011;7730;49.610;11.136;2022-10-03T06:17:57;13.93;;;5.57;;
15254;SDS011;7730;49.610;11.136;2022-10-03T06:23:16;15.80;;;6.03;;
15254;SDS011;7730;49.610;11.136;2022-10-03T06:25:54;14.80;;;5.60;;
15254;SDS011;7730;49.610;11.136;2022-10-03T06:28:29;15.70;;;5.70;;
15254;SDS011;7730;49.610;11.136;2022-10-03T06:34:08;14.70;;;5.50;;
15254;SDS011;7730;49.610;11.136;2022-10-03T06:36:45;12.60;;;5.07;;
15254;SDS011;7730;49.610;11.136;2022-10-03T06:39:26;15.98;;;5.55;;
15254;SDS011;7730;49.610;11.136;2022-10-03T06:42:07;12.50;;;5.15;;
15254;SDS011;7730;49.610;11.136;2022-10-03T06:44:45;15.10;;;5.05;;
15254;SDS011;7730;49.610;11.136;2022-10-03T06:47:34;14.48;;;5.18;;
15254;SDS011;7730;49.610;11.136;2022-10-03T06:50:11;12.75;;;5.20;;
15254;SDS011;7730;49.610;11.136;2022-10-03T06:55:46;13.70;;;6.15;;
15254;SDS011;7730;49.610;11.136;2022-10-03T06:58:23;13.00;;;5.47;;
15254;SDS011;7730;49.610;11.136;2022-10-03T07:00:57;15.20;;;5.80;;
15254;SDS011;7730;49.610;11.136;2022-10-03T07:06:16;15.50;;;5.53;;
15254;SDS011;7730;49.610;11.136;2022-10-03T07:08:57;15.18;;;6.03;;
15254;SDS011;7730;49.610;11.136;2022-10-03T07:11:42;15.50;;;6.15;;
15254;SDS011;7730;49.610;11.136;2022-10-03T07:17:07;15.73;;;6.30;;
15254;SDS011;7730;49.610;11.136;2022-10-03T07:25:23;15.45;;;5.95;;
15254;SDS011;7730;49.610;11.136;2022-10-03T07:27:56;15.40;;;5.90;;
15254;SDS011;7730;49.610;11.136;2022-10-03T07:30:28;13.18;;;5.40;;
15254;SDS011;7730;49.610;11.136;2022-10-03T07:36:21;11.73;;;4.93;;
15254;SDS011;7730;49.610;11.136;2022-10-03T07:39:14;14.68;;;5.93;;
15254;SDS011;7730;49.610;11.136;2022-10-03T07:41:55;16.08;;;4.95;;
15254;SDS011;7730;49.610;11.136;2022-10-03T07:44:32;14.18;;;4.97;;
15254;SDS011;7730;49.610;11.136;2022-10-03T07:47:19;15.10;;;5.47;;
15254;SDS011;7730;49.610;11.136;2022-10-03T07:53:06;14.55;;;5.18;;
15254;SDS011;7730;49.610;11.136;2022-10-03T07:55:50;14.73;;;4.93;;
15254;SDS011;7730;49.610;11.136;2022-10-03T07:58:31;14.25;;;5.18;;
15254;SDS011;7730;49.610;11.136;2022-10-03T08:03:51;15.25;;;5.88;;
15254;SDS011;7730;49.610;11.136;2022-10-03T08:06:23;14.88;;;4.32;;
15254;SDS011;7730;49.610;11.136;2022-10-03T08:11:44;15.95;;;4.70;;
15254;SDS011;7730;49.610;11.136;2022-10-03T08:14:16;13.43;;;4.25;;
15254;SDS011;7730;49.610;11.136;2022-10-03T08:16:49;15.45;;;4.20;;
15254;SDS011;7730;49.610;11.136;2022-10-03T08:19:21;12.32;;;3.83;;
15254;SDS011;7730;49.610;11.136;2022-10-03T08:21:56;13.27;;;4.30;;
15254;SDS011;7730;49.610;11.136;2022-10-03T08:24:32;12.50;;;3.90;;
15254;SDS011;7730;49.610;11.136;2022-10-03T08:27:10;13.07;;;4.00;;
15254;SDS011;7730;49.610;11.136;2022-10-03T08:29:53;14.70;;;4.07;;
15254;SDS011;7730;49.610;11.136;2022-10-03T08:32:41;15.10;;;4.20;;
15254;SDS011;7730;49.610;11.136;2022-10-03T08:35:22;14.27;;;4.10;;
15254;SDS011;7730;49.610;11.136;2022-10-03T08:38:00;13.00;;;4.07;;
15254;SDS011;7730;49.610;11.136;2022-10-03T08:43:28;13.07;;;3.92;;
15254;SDS011;7730;49.610;11.136;2022-10-03T08:46:16;13.57;;;3.55;;
15254;SDS011;7730;49.610;11.136;2022-10-03T08:48:53;13.23;;;3.80;;
15254;SDS011;7730;49.610;11.136;2022-10-03T08:51:35;12.13;;;3.42;;
15254;SDS011;7730;49.610;11.136;2022-10-03T08:54:11;13.38;;;3.78;;
15254;SDS011;7730;49.610;11.136;2022-10-03T08:56:44;13.48;;;3.55;;
15254;SDS011;7730;49.610;11.136;2022-10-03T08:59:37;10.90;;;3.30;;
15254;SDS011;7730;49.610;11.136;2022-10-03T09:05:24;10.77;;;3.10;;
15254;SDS011;7730;49.610;11.136;2022-10-03T09:08:12;12.05;;;3.33;;
15254;SDS011;7730;49.610;11.136;2022-10-03T09:10:52;10.48;;;3.00;;
15254;SDS011;7730;49.610;11.136;2022-10-03T09:13:31;11.98;;;2.88;;
15254;SDS011;7730;49.610;11.136;2022-10-03T09:16:25;10.77;;;3.08;;
15254;SDS011;7730;49.610;11.136;2022-10-03T09:19:00;12.38;;;2.95;;
15254;SDS011;7730;49.610;11.136;2022-10-03T09:21:42;11.88;;;3.13;;
15254;SDS011;7730;49.610;11.136;2022-10-03T09:27:11;14.38;;;3.30;;
15254;SDS011;7730;49.610;11.136;2022-10-03T09:32:42;12.63;;;3.40;;
15254;SDS011;7730;49.610;11.136;2022-10-03T09:35:22;11.52;;;3.35;;
15254;SDS011;7730;49.610;11.136;2022-10-03T09:43:40;12.55;;;3.35;;
15254;SDS011;7730;49.610;11.136;2022-10-03T09:51:48;10.43;;;3.10;;
15254;SDS011;7730;49.610;11.136;2022-10-03T09:54:30;12.98;;;3.13;;
15254;SDS011;7730;49.610;11.136;2022-10-03T10:00:10;11.88;;;2.92;;
15254;SDS011;7730;49.610;11.136;2022-10-03T10:05:32;11.93;;;2.75;;
15254;SDS011;7730;49.610;11.136;2022-10-03T10:08:08;10.43;;;2.45;;
15254;SDS011;7730;49.610;11.136;2022-10-03T10:13:30;10.50;;;2.38;;
15254;SDS011;7730;49.610;11.136;2022-10-03T10:16:18;9.40;;;2.45;;
15254;SDS011;7730;49.610;11.136;2022-10-03T10:21:36;9.30;;;2.20;;
15254;SDS011;7730;49.610;11.136;2022-10-03T10:24:14;11.05;;;2.55;;
15254;SDS011;7730;49.610;11.136;2022-10-03T10:29:46;10.20;;;2.45;;
15254;SDS011;7730;49.610;11.136;2022-10-03T10:35:28;9.73;;;2.33;;
15254;SDS011;7730;49.610;11.136;2022-10-03T10:38:17;8.80;;;2.03;;
15254;SDS011;7730;49.610;11.136;2022-10-03T10:46:21;9.88;;;2.22;;
15254;SDS011;7730;49.610;11.136;2022-10-03T10:49:11;8.52;;;2.00;;
15254;SDS011;7730;49.610;11.136;2022-10-03T10:54:52;8.55;;;2.30;;
15254;SDS011;7730;49.610;11.136;2022-10-03T10:57:43;10.63;;;2.40;;
15254;SDS011;7730;49.610;11.136;2022-10-03T11:00:22;9.02;;;2.30;;
15254;SDS011;7730;49.610;11.136;2022-10-03T11:05:45;9.75;;;2.10;;
15254;SDS011;7730;49.610;11.136;2022-10-03T11:08:28;9.57;;;2.03;;
15254;SDS011;7730;49.610;11.136;2022-10-03T11:11:04;10.23;;;2.20;;
15254;SDS011;7730;49.610;11.136;2022-10-03T11:13:48;9.57;;;1.90;;
15254;SDS011;7730;49.610;11.136;2022-10-03T11:16:40;8.77;;;2.15;;
15254;SDS011;7730;49.610;11.136;2022-10-03T11:22:32;8.57;;;2.30;;
15254;SDS011;7730;49.610;11.136;2022-10-03T11:28:17;8.05;;;2.10;;
15254;SDS011;7730;49.610;11.136;2022-10-03T11:31:07;10.40;;;2.60;;
15254;SDS011;7730;49.610;11.136;2022-10-03T11:36:46;9.95;;;2.40;;
15254;SDS011;7730;49.610;11.136;2022-10-03T11:39:21;8.18;;;2.00;;
15254;SDS011;7730;49.610;11.136;2022-10-03T11:41:50;8.75;;;1.80;;
15254;SDS011;7730;49.610;11.136;2022-10-03T11:44:24;8.93;;;2.10;;
15254;SDS011;7730;49.610;11.136;2022-10-03T11:47:01;9.52;;;2.05;;
15254;SDS011;7730;49.610;11.136;2022-10-03T11:49:46;9.23;;;2.22;;
15254;SDS011;7730;49.610;11.136;2022-10-03T11:52:22;9.63;;;2.20;;
15254;SDS011;7730;49.610;11.136;2022-10-03T11:54:55;8.20;;;2.30;;
15254;SDS011;7730;49.610;11.136;2022-10-03T11:57:29;7.65;;;1.98;;
15254;SDS011;7730;49.610;11.136;2022-10-03T12:00:00;6.63;;;2.00;;
15254;SDS011;7730;49.610;11.136;2022-10-03T12:02:40;6.97;;;1.90;;
15254;SDS011;7730;49.610;11.136;2022-10-03T12:05:11;8.02;;;2.30;;
15254;SDS011;7730;49.610;11.136;2022-10-03T12:07:44;9.20;;;1.80;;
15254;SDS011;7730;49.610;11.136;2022-10-03T12:10:32;8.43;;;2.20;;
15254;SDS011;7730;49.610;11.136;2022-10-03T12:13:03;8.60;;;2.38;;
15254;SDS011;7730;49.610;11.136;2022-10-03T12:15:33;7.63;;;2.10;;
15254;SDS011;7730;49.610;11.136;2022-10-03T12:18:04;6.63;;;1.92;;
15254;SDS011;7730;49.610;11.136;2022-10-03T12:20:36;9.43;;;2.00;;
15254;SDS011;7730;49.610;11.136;2022-10-03T12:23:08;7.78;;;2.17;;
15254;SDS011;7730;49.610;11.136;2022-10-03T12:25:40;9.50;;;2.08;;
15254;SDS011;7730;49.610;11.136;2022-10-03T12:28:10;8.15;;;2.13;;
15254;SDS011;7730;49.610;11.136;2022-10-03T12:30:43;8.27;;;2.00;;
15254;SDS011;7730;49.610;11.136;2022-10-03T12:33:18;10.38;;;2.25;;
15254;SDS011;7730;49.610;11.136;2022-10-03T12:35:54;6.97;;;1.98;;
15254;SDS011;7730;49.610;11.136;2022-10-03T12:38:32;9.50;;;2.30;;
15254;SDS011;7730;49.610;11.136;2022-10-03T12:41:08;7.88;;;2.00;;
15254;SDS011;7730;49.610;11.136;2022-10-03T12:43:43;10.73;;;2.22;;
15254;SDS011;7730;49.610;11.136;2022-10-03T12:46:15;6.43;;;2.13;;
15254;SDS011;7730;49.610;11.136;2022-10-03T12:48:45;7.70;;;1.88;;
15254;SDS011;7730;49.610;11.136;2022-10-03T12:51:14;6.45;;;1.85;;
15254;SDS011;7730;49.610;11.136;2022-10-03T12:53:47;6.97;;;1.90;;
15254;SDS011;7730;49.610;11.136;2022-10-03T12:56:16;5.43;;;1.60;;
15254;SDS011;7730;49.610;11.136;2022-10-03T12:58:49;7.50;;;2.40;;
15254;SDS011;7730;49.610;11.136;2022-10-03T13:01:23;7.72;;;1.65;;
15254;SDS011;7730;49.610;11.136;2022-10-03T13:03:52;6.57;;;1.73;;
15254;SDS011;7730;49.610;11.136;2022-10-03T13:09:22;8.63;;;2.03;;
15254;SDS011;7730;49.610;11.136;2022-10-03T13:11:54;9.02;;;1.80;;
15254;SDS011;7730;49.610;11.136;2022-10-03T13:14:33;7.30;;;1.70;;
15254;SDS011;7730;49.610;11.136;2022-10-03T13:17:06;9.25;;;2.28;;
15254;SDS011;7730;49.610;11.136;2022-10-03T13:19:38;5.28;;;1.60;;
15254;SDS011;7730;49.610;11.136;2022-10-03T13:22:17;6.47;;;2.00;;
15254;SDS011;7730;49.610;11.136;2022-10-03T13:24:47;9.73;;;2.10;;
15254;SDS011;7730;49.610;11.136;2022-10-03T13:27:21;6.10;;;1.98;;
15254;SDS011;7730;49.610;11.136;2022-10-03T13:29:53;6.28;;;1.70;;
15254;SDS011;7730;49.610;11.136;2022-10-03T13:32:29;7.68;;;1.80;;
15254;SDS011;7730;49.610;11.136;2022-10-03T13:35:10;7.25;;;1.80;;
15254;SDS011;7730;49.610;11.136;2022-10-03T13:38:05;6.03;;;1.80;;
15254;SDS011;7730;49.610;11.136;2022-10-03T13:40:37;7.07;;;1.90;;
15254;SDS011;7730;49.610;11.136;2022-10-03T13:43:08;6.57;;;1.80;;
15254;SDS011;7730;49.610;11.136;2022-10-03T13:45:37;6.78;;;1.90;;
15254;SDS011;7730;49.610;11.136;2022-10-03T13:48:10;5.93;;;1.95;;
15254;SDS011;7730;49.610;11.136;2022-10-03T13:50:40;4.53;;;1.55;;
15254;SDS011;7730;49.610;11.136;2022-10-03T13:53:10;7.97;;;1.70;;
15254;SDS011;7730;49.610;11.136;2022-10-03T13:55:41;6.95;;;1.98;;
15254;SDS011;7730;49.610;11.136;2022-10-03T13:58:16;7.53;;;1.80;;
15254;SDS011;7730;49.610;11.136;2022-10-03T14:00:49;5.07;;;1.70;;
15254;SDS011;7730;49.610;11.136;2022-10-03T14:03:21;5.90;;;1.73;;
15254;SDS011;7730;49.610;11.136;2022-10-03T14:05:56;8.40;;;1.80;;
15254;SDS011;7730;49.610;11.136;2022-10-03T14:08:31;7.32;;;1.63;;
15254;SDS011;7730;49.610;11.136;2022-10-03T14:13:51;8.55;;;2.08;;
15254;SDS011;7730;49.610;11.136;2022-10-03T14:16:25;7.38;;;1.98;;
15254;SDS011;7730;49.610;11.136;2022-10-03T14:18:56;7.15;;;1.90;;
15254;SDS011;7730;49.610;11.136;2022-10-03T14:21:29;8.98;;;2.10;;
15254;SDS011;7730;49.610;11.136;2022-10-03T14:24:04;7.07;;;2.33;;
15254;SDS011;7730;49.610;11.136;2022-10-03T14:26:34;7.72;;;2.08;;
15254;SDS011;7730;49.610;11.136;2022-10-03T14:29:03;7.68;;;1.92;;
15254;SDS011;7730;49.610;11.136;2022-10-03T14:31:33;6.63;;;1.98;;
15254;SDS011;7730;49.610;11.136;2022-10-03T14:34:03;9.68;;;1.90;;
15254;SDS011;7730;49.610;11.136;2022-10-03T14:36:34;6.55;;;1.70;;
15254;SDS011;7730;49.610;11.136;2022-10-03T14:39:06;7.72;;;1.90;;
15254;SDS011;7730;49.610;11.136;2022-10-03T14:41:46;5.75;;;1.70;;
15254;SDS011;7730;49.610;11.136;2022-10-03T14:44:16;5.03;;;1.80;;
15254;SDS011;7730;49.610;11.136;2022-10-03T14:46:46;7.63;;;2.08;;
15254;SDS011;7730;49.610;11.136;2022-10-03T14:49:18;9.10;;;2.00;;
15254;SDS011;7730;49.610;11.136;2022-10-03T14:51:46;7.05;;;1.98;;
15254;SDS011;7730;49.610;11.136;2022-10-03T14:54:16;8.40;;;2.22;;
15254;SDS011;7730;49.610;11.136;2022-10-03T14:56:45;7.22;;;2.40;;
15254;SDS011;7730;49.610;11.136;2022-10-03T14:59:16;7.65;;;2.08;;
15254;SDS011;7730;49.610;11.136;2022-10-03T15:01:47;5.57;;;1.98;;
15254;SDS011;7730;49.610;11.136;2022-10-03T15:04:19;7.13;;;2.20;;
15254;SDS011;7730;49.610;11.136;2022-10-03T15:06:50;5.85;;;2.20;;
15254;SDS011;7730;49.610;11.136;2022-10-03T15:09:20;11.43;;;2.40;;
15254;SDS011;7730;49.610;11.136;2022-10-03T15:11:49;9.77;;;2.10;;
15254;SDS011;7730;49.610;11.136;2022-10-03T15:14:19;8.30;;;2.33;;
15254;SDS011;7730;49.610;11.136;2022-10-03T15:16:48;7.68;;;2.00;;
15254;SDS011;7730;49.610;11.136;2022-10-03T15:19:19;5.63;;;2.10;;
15254;SDS011;7730;49.610;11.136;2022-10-03T15:21:50;6.90;;;2.28;;
15254;SDS011;7730;49.610;11.136;2022-10-03T15:24:19;7.28;;;2.22;;
15254;SDS011;7730;49.610;11.136;2022-10-03T15:26:48;7.28;;;2.13;;
15254;SDS011;7730;49.610;11.136;2022-10-03T15:29:16;8.40;;;2.40;;
15254;SDS011;7730;49.610;11.136;2022-10-03T15:31:44;10.13;;;2.70;;
15254;SDS011;7730;49.610;11.136;2022-10-03T15:34:14;8.82;;;2.58;;
15254;SDS011;7730;49.610;11.136;2022-10-03T15:36:44;10.57;;;2.90;;
15254;SDS011;7730;49.610;11.136;2022-10-03T15:39:15;10.27;;;2.60;;
15254;SDS011;7730;49.610;11.136;2022-10-03T15:41:48;8.88;;;2.70;;
15254;SDS011;7730;49.610;11.136;2022-10-03T15:44:17;9.82;;;2.65;;
15254;SDS011;7730;49.610;11.136;2022-10-03T15:46:47;9.68;;;2.78;;
15254;SDS011;7730;49.610;11.136;2022-10-03T15:49:19;10.48;;;2.70;;
15254;SDS011;7730;49.610;11.136;2022-10-03T15:51:48;8.40;;;2.70;;
15254;SDS011;7730;49.610;11.136;2022-10-03T15:54:18;11.57;;;3.00;;
15254;SDS011;7730;49.610;11.136;2022-10-03T15:56:48;7.65;;;2.90;;
15254;SDS011;7730;49.610;11.136;2022-10-03T15:59:17;7.43;;;2.75;;
15254;SDS011;7730;49.610;11.136;2022-10-03T16:01:45;9.15;;;2.88;;
15254;SDS011;7730;49.610;11.136;2022-10-03T16:04:16;7.22;;;2.72;;
15254;SDS011;7730;49.610;11.136;2022-10-03T16:06:45;8.63;;;2.60;;
15254;SDS011;7730;49.610;11.136;2022-10-03T16:09:17;8.63;;;2.80;;
15254;SDS011;7730;49.610;11.136;2022-10-03T16:11:50;10.50;;;2.70;;
15254;SDS011;7730;49.610;11.136;2022-10-03T16:14:20;9.05;;;2.90;;
15254;SDS011;7730;49.610;11.136;2022-10-03T16:16:50;8.15;;;2.75;;
15254;SDS011;7730;49.610;11.136;2022-10-03T16:19:22;10.70;;;2.45;;
15254;SDS011;7730;49.610;11.136;2022-10-03T16:21:52;8.30;;;2.60;;
15254;SDS011;7730;49.610;11.136;2022-10-03T16:24:28;9.65;;;2.67;;
15254;SDS011;7730;49.610;11.136;2022-10-03T16:26:58;8.15;;;2.30;;
15254;SDS011;7730;49.610;11.136;2022-10-03T16:29:29;8.80;;;2.40;;
15254;SDS011;7730;49.610;11.136;2022-10-03T16:32:00;8.32;;;2.40;;
15254;SDS011;7730;49.610;11.136;2022-10-03T16:34:30;6.28;;;2.30;;
15254;SDS011;7730;49.610;11.136;2022-10-03T16:36:57;7.72;;;2.20;;
15254;SDS011;7730;49.610;11.136;2022-10-03T16:39:27;6.47;;;2.00;;
15254;SDS011;7730;49.610;11.136;2022-10-03T16:41:55;7.95;;;2.20;;
15254;SDS011;7730;49.610;11.136;2022-10-03T16:44:24;10.43;;;2.80;;
15254;SDS011;7730;49.610;11.136;2022-10-03T16:46:53;9.20;;;2.65;;
15254;SDS011;7730;49.610;11.136;2022-10-03T16:49:37;11.25;;;3.00;;
15254;SDS011;7730;49.610;11.136;2022-10-03T16:52:23;8.32;;;3.03;;
15254;SDS011;7730;49.610;11.136;2022-10-03T16:54:58;7.68;;;2.80;;
15254;SDS011;7730;49.610;11.136;2022-10-03T16:57:28;9.43;;;2.90;;
15254;SDS011;7730;49.610;11.136;2022-10-03T16:59:56;9.82;;;3.25;;
15254;SDS011;7730;49.610;11.136;2022-10-03T17:02:28;10.35;;;3.05;;
15254;SDS011;7730;49.610;11.136;2022-10-03T17:04:59;10.65;;;3.60;;
15254;SDS011;7730;49.610;11.136;2022-10-03T17:07:29;11.73;;;3.83;;
15254;SDS011;7730;49.610;11.136;2022-10-03T17:09:59;12.38;;;4.35;;
15254;SDS011;7730;49.610;11.136;2022-10-03T17:12:27;11.75;;;4.30;;
15254;SDS011;7730;49.610;11.136;2022-10-03T17:14:56;15.50;;;4.80;;
15254;SDS011;7730;49.610;11.136;2022-10-03T17:17:25;11.88;;;4.30;;
15254;SDS011;7730;49.610;11.136;2022-10-03T17:19:54;11.27;;;4.40;;
15254;SDS011;7730;49.610;11.136;2022-10-03T17:22:25;10.63;;;3.53;;
15254;SDS011;7730;49.610;11.136;2022-10-03T17:24:56;11.00;;;3.60;;
15254;SDS011;7730;49.610;11.136;2022-10-03T17:27:28;9.75;;;3.17;;
15254;SDS011;7730;49.610;11.136;2022-10-03T17:29:57;12.02;;;4.28;;
15254;SDS011;7730;49.610;11.136;2022-10-03T17:32:27;12.77;;;4.45;;
15254;SDS011;7730;49.610;11.136;2022-10-03T17:34:59;11.40;;;4.80;;
15254;SDS011;7730;49.610;11.136;2022-10-03T17:37:36;13.05;;;5.28;;
15254;SDS011;7730;49.610;11.136;2022-10-03T17:40:11;12.20;;;4.63;;